sensor_id;sensor_type;location;lat;lon;timestamp;temperature;humidity
58413;DHT22;44209;52.952;6.790;2022-12-24T00:00:26;7.30;99.90
58413;DHT22;44209;52.952;6.790;2022-12-24T00:02:52;7.30;99.90
58413;DHT22;44209;52.952;6.790;2022-12-24T00:05:18;7.30;99.90
58413;DHT22;44209;52.952;6.790;2022-12-24T00:07:43;7.30;99.90
58413;DHT22;44209;52.952;6.790;2022-12-24T00:10:09;7.30;99.90
58413;DHT22;44209;52.952;6.790;2022-12-24T00:12:35;7.30;99.90
58413;DHT22;44209;52.952;6.790;2022-12-24T00:15:02;7.30;99.90
58413;DHT22;44209;52.952;6.790;2022-12-24T00:17:28;7.30;99.90
58413;DHT22;44209;52.952;6.790;2022-12-24T00:19:54;7.30;99.90
58413;DHT22;44209;52.952;6.790;2022-12-24T00:22:19;7.30;99.90
58413;DHT22;44209;52.952;6.790;2022-12-24T00:24:45;7.30;99.90
58413;DHT22;44209;52.952;6.790;2022-12-24T00:27:10;7.40;99.90
58413;DHT22;44209;52.952;6.790;2022-12-24T00:29:36;7.30;99.90
58413;DHT22;44209;52.952;6.790;2022-12-24T00:32:02;7.30;99.90
58413;DHT22;44209;52.952;6.790;2022-12-24T00:34:32;7.30;99.90
58413;DHT22;44209;52.952;6.790;2022-12-24T00:36:58;7.30;99.90
58413;DHT22;44209;52.952;6.790;2022-12-24T00:39:24;7.40;99.90
58413;DHT22;44209;52.952;6.790;2022-12-24T00:41:50;7.40;99.90
58413;DHT22;44209;52.952;6.790;2022-12-24T00:44:15;7.40;99.90
58413;DHT22;44209;52.952;6.790;2022-12-24T00:46:41;7.30;99.90
58413;DHT22;44209;52.952;6.790;2022-12-24T00:49:08;7.40;99.90
58413;DHT22;44209;52.952;6.790;2022-12-24T00:51:34;7.30;99.90
58413;DHT22;44209;52.952;6.790;2022-12-24T00:54:01;7.40;99.90
58413;DHT22;44209;52.952;6.790;2022-12-24T00:56:27;7.30;99.90
58413;DHT22;44209;52.952;6.790;2022-12-24T00:58:53;7.30;99.90
58413;DHT22;44209;52.952;6.790;2022-12-24T01:01:21;7.40;99.90
58413;DHT22;44209;52.952;6.790;2022-12-24T01:03:47;7.40;99.90
58413;DHT22;44209;52.952;6.790;2022-12-24T01:06:16;7.40;99.90
58413;DHT22;44209;52.952;6.790;2022-12-24T01:08:43;7.40;99.90
58413;DHT22;44209;52.952;6.790;2022-12-24T01:11:09;7.40;99.90
58413;DHT22;44209;52.952;6.790;2022-12-24T01:13:36;7.40;99.90
58413;DHT22;44209;52.952;6.790;2022-12-24T01:16:02;7.40;99.90
58413;DHT22;44209;52.952;6.790;2022-12-24T01:18:28;7.40;99.90
58413;DHT22;44209;52.952;6.790;2022-12-24T01:21:01;7.40;99.90
58413;DHT22;44209;52.952;6.790;2022-12-24T01:23:28;7.50;99.90
58413;DHT22;44209;52.952;6.790;2022-12-24T01:25:54;7.50;99.90
58413;DHT22;44209;52.952;6.790;2022-12-24T01:28:20;7.50;99.90
58413;DHT22;44209;52.952;6.790;2022-12-24T01:30:47;7.50;99.90
58413;DHT22;44209;52.952;6.790;2022-12-24T01:33:13;7.50;99.90
58413;DHT22;44209;52.952;6.790;2022-12-24T01:35:40;7.50;99.90
58413;DHT22;44209;52.952;6.790;2022-12-24T01:38:06;7.50;99.90
58413;DHT22;44209;52.952;6.790;2022-12-24T01:40:32;7.50;99.90
58413;DHT22;44209;52.952;6.790;2022-12-24T01:43:36;7.60;99.90
58413;DHT22;44209;52.952;6.790;2022-12-24T01:48:46;7.60;99.90
58413;DHT22;44209;52.952;6.790;2022-12-24T01:51:39;7.50;99.90
58413;DHT22;44209;52.952;6.790;2022-12-24T01:54:32;7.60;99.90
58413;DHT22;44209;52.952;6.790;2022-12-24T01:57:17;7.60;99.90
58413;DHT22;44209;52.952;6.790;2022-12-24T01:59:49;7.60;99.90
58413;DHT22;44209;52.952;6.790;2022-12-24T02:02:16;7.60;99.90
58413;DHT22;44209;52.952;6.790;2022-12-24T02:04:58;7.60;99.90
58413;DHT22;44209;52.952;6.790;2022-12-24T02:07:25;7.60;99.90
58413;DHT22;44209;52.952;6.790;2022-12-24T02:09:55;7.60;99.90
58413;DHT22;44209;52.952;6.790;2022-12-24T02:12:21;7.70;99.90
58413;DHT22;44209;52.952;6.790;2022-12-24T02:14:47;7.70;99.90
58413;DHT22;44209;52.952;6.790;2022-12-24T02:17:25;7.70;99.90
58413;DHT22;44209;52.952;6.790;2022-12-24T02:20:24;7.80;99.90
58413;DHT22;44209;52.952;6.790;2022-12-24T02:28:45;7.90;99.90
58413;DHT22;44209;52.952;6.790;2022-12-24T02:34:38;8.00;99.90
58413;DHT22;44209;52.952;6.790;2022-12-24T02:37:31;8.10;99.90
58413;DHT22;44209;52.952;6.790;2022-12-24T02:42:38;8.10;99.90
58413;DHT22;44209;52.952;6.790;2022-12-24T02:47:32;8.20;99.90
58413;DHT22;44209;52.952;6.790;2022-12-24T02:50:00;8.20;99.90
58413;DHT22;44209;52.952;6.790;2022-12-24T02:54:59;8.40;99.90
58413;DHT22;44209;52.952;6.790;2022-12-24T02:58:04;8.40;99.90
58413;DHT22;44209;52.952;6.790;2022-12-24T03:05:52;8.50;99.90
58413;DHT22;44209;52.952;6.790;2022-12-24T03:08:37;8.50;99.90
58413;DHT22;44209;52.952;6.790;2022-12-24T03:11:13;8.50;99.90
58413;DHT22;44209;52.952;6.790;2022-12-24T03:13:41;8.50;99.90
58413;DHT22;44209;52.952;6.790;2022-12-24T03:16:11;8.50;99.90
58413;DHT22;44209;52.952;6.790;2022-12-24T03:18:41;8.50;99.90
58413;DHT22;44209;52.952;6.790;2022-12-24T03:23:39;8.60;99.90
58413;DHT22;44209;52.952;6.790;2022-12-24T03:26:08;8.60;99.90
58413;DHT22;44209;52.952;6.790;2022-12-24T03:28:36;8.60;99.90
58413;DHT22;44209;52.952;6.790;2022-12-24T03:31:04;8.60;99.90
58413;DHT22;44209;52.952;6.790;2022-12-24T03:33:30;8.70;99.90
58413;DHT22;44209;52.952;6.790;2022-12-24T03:35:56;8.70;99.90
58413;DHT22;44209;52.952;6.790;2022-12-24T03:38:22;8.70;99.90
58413;DHT22;44209;52.952;6.790;2022-12-24T03:40:48;8.70;99.90
58413;DHT22;44209;52.952;6.790;2022-12-24T03:43:13;8.70;99.90
58413;DHT22;44209;52.952;6.790;2022-12-24T03:45:40;8.70;99.90
58413;DHT22;44209;52.952;6.790;2022-12-24T03:48:06;8.70;99.90
58413;DHT22;44209;52.952;6.790;2022-12-24T03:50:32;8.70;99.90
58413;DHT22;44209;52.952;6.790;2022-12-24T03:52:58;8.70;99.90
58413;DHT22;44209;52.952;6.790;2022-12-24T03:55:23;8.70;99.90
58413;DHT22;44209;52.952;6.790;2022-12-24T03:57:49;8.70;99.90
58413;DHT22;44209;52.952;6.790;2022-12-24T04:00:15;8.70;99.90
58413;DHT22;44209;52.952;6.790;2022-12-24T04:02:41;8.70;99.90
58413;DHT22;44209;52.952;6.790;2022-12-24T04:05:09;8.70;99.90
58413;DHT22;44209;52.952;6.790;2022-12-24T04:07:37;8.70;99.90
58413;DHT22;44209;52.952;6.790;2022-12-24T04:10:03;8.70;99.90
58413;DHT22;44209;52.952;6.790;2022-12-24T04:12:29;8.70;99.90
58413;DHT22;44209;52.952;6.790;2022-12-24T04:14:54;8.70;99.90
58413;DHT22;44209;52.952;6.790;2022-12-24T04:17:20;8.70;99.90
58413;DHT22;44209;52.952;6.790;2022-12-24T04:19:46;8.70;99.90
58413;DHT22;44209;52.952;6.790;2022-12-24T04:22:12;8.70;99.90
58413;DHT22;44209;52.952;6.790;2022-12-24T04:24:37;8.70;99.90
58413;DHT22;44209;52.952;6.790;2022-12-24T04:27:03;8.70;99.90
58413;DHT22;44209;52.952;6.790;2022-12-24T04:29:29;8.70;99.90
58413;DHT22;44209;52.952;6.790;2022-12-24T04:31:54;8.70;99.90
58413;DHT22;44209;52.952;6.790;2022-12-24T04:34:20;8.70;99.90
58413;DHT22;44209;52.952;6.790;2022-12-24T04:36:45;8.70;99.90
58413;DHT22;44209;52.952;6.790;2022-12-24T04:39:11;8.70;99.90
58413;DHT22;44209;52.952;6.790;2022-12-24T04:41:37;8.70;99.90
58413;DHT22;44209;52.952;6.790;2022-12-24T04:44:02;8.70;99.90
58413;DHT22;44209;52.952;6.790;2022-12-24T04:46:29;8.70;99.90
58413;DHT22;44209;52.952;6.790;2022-12-24T04:48:55;8.70;99.90
58413;DHT22;44209;52.952;6.790;2022-12-24T04:51:22;8.70;99.90
58413;DHT22;44209;52.952;6.790;2022-12-24T04:53:48;8.70;99.90
58413;DHT22;44209;52.952;6.790;2022-12-24T04:56:22;8.70;99.90
58413;DHT22;44209;52.952;6.790;2022-12-24T04:58:48;8.70;99.90
58413;DHT22;44209;52.952;6.790;2022-12-24T05:01:20;8.70;99.90
58413;DHT22;44209;52.952;6.790;2022-12-24T05:03:46;8.60;99.90
58413;DHT22;44209;52.952;6.790;2022-12-24T05:06:15;8.60;99.90
58413;DHT22;44209;52.952;6.790;2022-12-24T05:08:41;8.60;99.90
58413;DHT22;44209;52.952;6.790;2022-12-24T05:11:08;8.60;99.90
58413;DHT22;44209;52.952;6.790;2022-12-24T05:13:35;8.60;99.90
58413;DHT22;44209;52.952;6.790;2022-12-24T05:16:00;8.60;99.90
58413;DHT22;44209;52.952;6.790;2022-12-24T05:18:26;8.60;99.90
58413;DHT22;44209;52.952;6.790;2022-12-24T05:20:52;8.60;99.90
58413;DHT22;44209;52.952;6.790;2022-12-24T05:23:19;8.60;99.90
58413;DHT22;44209;52.952;6.790;2022-12-24T05:26:09;8.60;99.90
58413;DHT22;44209;52.952;6.790;2022-12-24T05:28:48;8.60;99.90
58413;DHT22;44209;52.952;6.790;2022-12-24T05:31:14;8.60;99.90
58413;DHT22;44209;52.952;6.790;2022-12-24T05:33:40;8.60;99.90
58413;DHT22;44209;52.952;6.790;2022-12-24T05:36:06;8.60;99.90
58413;DHT22;44209;52.952;6.790;2022-12-24T05:38:32;8.50;99.90
58413;DHT22;44209;52.952;6.790;2022-12-24T05:40:57;8.50;99.90
58413;DHT22;44209;52.952;6.790;2022-12-24T05:43:23;8.50;99.90
58413;DHT22;44209;52.952;6.790;2022-12-24T05:45:48;8.50;99.90
58413;DHT22;44209;52.952;6.790;2022-12-24T05:48:14;8.50;99.90
58413;DHT22;44209;52.952;6.790;2022-12-24T05:50:40;8.50;99.90
58413;DHT22;44209;52.952;6.790;2022-12-24T05:53:06;8.40;99.90
58413;DHT22;44209;52.952;6.790;2022-12-24T05:55:32;8.40;99.90
58413;DHT22;44209;52.952;6.790;2022-12-24T05:57:58;8.40;99.90
58413;DHT22;44209;52.952;6.790;2022-12-24T06:00:24;8.50;99.90
58413;DHT22;44209;52.952;6.790;2022-12-24T06:02:50;8.40;99.90
58413;DHT22;44209;52.952;6.790;2022-12-24T06:05:15;8.40;99.90
58413;DHT22;44209;52.952;6.790;2022-12-24T06:07:41;8.40;99.90
58413;DHT22;44209;52.952;6.790;2022-12-24T06:10:09;8.50;99.90
58413;DHT22;44209;52.952;6.790;2022-12-24T06:12:35;8.50;99.90
58413;DHT22;44209;52.952;6.790;2022-12-24T06:15:00;8.50;99.90
58413;DHT22;44209;52.952;6.790;2022-12-24T06:17:26;8.50;99.90
58413;DHT22;44209;52.952;6.790;2022-12-24T06:19:52;8.50;99.90
58413;DHT22;44209;52.952;6.790;2022-12-24T06:22:17;8.50;99.90
58413;DHT22;44209;52.952;6.790;2022-12-24T06:24:43;8.50;99.90
58413;DHT22;44209;52.952;6.790;2022-12-24T06:27:09;8.50;99.90
58413;DHT22;44209;52.952;6.790;2022-12-24T06:29:34;8.50;99.90
58413;DHT22;44209;52.952;6.790;2022-12-24T06:32:00;8.60;99.90
58413;DHT22;44209;52.952;6.790;2022-12-24T06:34:26;8.50;99.90
58413;DHT22;44209;52.952;6.790;2022-12-24T06:36:51;8.60;99.90
58413;DHT22;44209;52.952;6.790;2022-12-24T06:39:17;8.60;99.90
58413;DHT22;44209;52.952;6.790;2022-12-24T06:41:43;8.60;99.90
58413;DHT22;44209;52.952;6.790;2022-12-24T06:44:08;8.60;99.90
58413;DHT22;44209;52.952;6.790;2022-12-24T06:46:34;8.60;99.90
58413;DHT22;44209;52.952;6.790;2022-12-24T06:49:00;8.60;99.90
58413;DHT22;44209;52.952;6.790;2022-12-24T06:51:26;8.60;99.90
58413;DHT22;44209;52.952;6.790;2022-12-24T06:53:51;8.70;99.90
58413;DHT22;44209;52.952;6.790;2022-12-24T06:56:18;8.70;99.90
58413;DHT22;44209;52.952;6.790;2022-12-24T06:58:45;8.70;99.90
58413;DHT22;44209;52.952;6.790;2022-12-24T07:01:14;8.60;99.90
58413;DHT22;44209;52.952;6.790;2022-12-24T07:03:40;8.60;99.90
58413;DHT22;44209;52.952;6.790;2022-12-24T07:06:06;8.60;99.90
58413;DHT22;44209;52.952;6.790;2022-12-24T07:08:32;8.70;99.90
58413;DHT22;44209;52.952;6.790;2022-12-24T07:11:00;8.70;99.90
58413;DHT22;44209;52.952;6.790;2022-12-24T07:13:26;8.70;99.90
58413;DHT22;44209;52.952;6.790;2022-12-24T07:15:59;8.70;99.90
58413;DHT22;44209;52.952;6.790;2022-12-24T07:18:24;8.70;99.90
58413;DHT22;44209;52.952;6.790;2022-12-24T07:20:50;8.80;99.90
58413;DHT22;44209;52.952;6.790;2022-12-24T07:23:16;8.80;99.90
58413;DHT22;44209;52.952;6.790;2022-12-24T07:25:42;8.80;99.90
58413;DHT22;44209;52.952;6.790;2022-12-24T07:28:08;8.80;99.90
58413;DHT22;44209;52.952;6.790;2022-12-24T07:30:33;8.90;99.90
58413;DHT22;44209;52.952;6.790;2022-12-24T07:32:59;8.80;99.90
58413;DHT22;44209;52.952;6.790;2022-12-24T07:35:25;8.90;99.90
58413;DHT22;44209;52.952;6.790;2022-12-24T07:37:51;8.90;99.90
58413;DHT22;44209;52.952;6.790;2022-12-24T07:40:17;8.90;99.90
58413;DHT22;44209;52.952;6.790;2022-12-24T07:42:42;8.90;99.90
58413;DHT22;44209;52.952;6.790;2022-12-24T07:45:08;8.90;99.90
58413;DHT22;44209;52.952;6.790;2022-12-24T07:47:35;8.90;99.90
58413;DHT22;44209;52.952;6.790;2022-12-24T07:50:01;8.90;99.90
58413;DHT22;44209;52.952;6.790;2022-12-24T07:52:27;9.00;99.90
58413;DHT22;44209;52.952;6.790;2022-12-24T07:54:52;9.00;99.90
58413;DHT22;44209;52.952;6.790;2022-12-24T07:57:18;8.90;99.90
58413;DHT22;44209;52.952;6.790;2022-12-24T07:59:44;8.90;99.90
58413;DHT22;44209;52.952;6.790;2022-12-24T08:02:10;9.00;99.90
58413;DHT22;44209;52.952;6.790;2022-12-24T08:04:36;9.00;99.90
58413;DHT22;44209;52.952;6.790;2022-12-24T08:07:05;9.00;99.90
58413;DHT22;44209;52.952;6.790;2022-12-24T08:09:32;9.00;99.90
58413;DHT22;44209;52.952;6.790;2022-12-24T08:11:58;9.00;99.90
58413;DHT22;44209;52.952;6.790;2022-12-24T08:14:24;9.00;99.90
58413;DHT22;44209;52.952;6.790;2022-12-24T08:16:50;9.00;99.90
58413;DHT22;44209;52.952;6.790;2022-12-24T08:19:15;8.90;99.90
58413;DHT22;44209;52.952;6.790;2022-12-24T08:21:41;9.00;99.90
58413;DHT22;44209;52.952;6.790;2022-12-24T08:24:07;9.00;99.90
58413;DHT22;44209;52.952;6.790;2022-12-24T08:26:33;9.00;99.90
58413;DHT22;44209;52.952;6.790;2022-12-24T08:28:58;9.00;99.90
58413;DHT22;44209;52.952;6.790;2022-12-24T08:31:24;9.00;99.90
58413;DHT22;44209;52.952;6.790;2022-12-24T08:33:50;9.00;99.90
58413;DHT22;44209;52.952;6.790;2022-12-24T08:36:15;9.00;99.90
58413;DHT22;44209;52.952;6.790;2022-12-24T08:38:41;9.00;99.90
58413;DHT22;44209;52.952;6.790;2022-12-24T08:41:07;9.00;99.90
58413;DHT22;44209;52.952;6.790;2022-12-24T08:43:32;9.00;99.90
58413;DHT22;44209;52.952;6.790;2022-12-24T08:46:03;9.00;99.90
58413;DHT22;44209;52.952;6.790;2022-12-24T08:48:30;9.00;99.90
58413;DHT22;44209;52.952;6.790;2022-12-24T08:50:55;9.00;99.90
58413;DHT22;44209;52.952;6.790;2022-12-24T08:53:21;9.00;99.90
58413;DHT22;44209;52.952;6.790;2022-12-24T08:55:47;9.00;99.90
58413;DHT22;44209;52.952;6.790;2022-12-24T08:58:13;9.10;99.90
58413;DHT22;44209;52.952;6.790;2022-12-24T09:00:39;9.00;99.90
58413;DHT22;44209;52.952;6.790;2022-12-24T09:03:04;9.10;99.90
58413;DHT22;44209;52.952;6.790;2022-12-24T09:05:31;9.10;99.90
58413;DHT22;44209;52.952;6.790;2022-12-24T09:07:56;9.10;99.90
58413;DHT22;44209;52.952;6.790;2022-12-24T09:10:22;9.10;99.90
58413;DHT22;44209;52.952;6.790;2022-12-24T09:12:48;9.10;99.90
58413;DHT22;44209;52.952;6.790;2022-12-24T09:15:15;9.20;99.90
58413;DHT22;44209;52.952;6.790;2022-12-24T09:17:41;9.20;99.90
58413;DHT22;44209;52.952;6.790;2022-12-24T09:20:07;9.20;99.90
58413;DHT22;44209;52.952;6.790;2022-12-24T09:22:35;9.20;99.90
58413;DHT22;44209;52.952;6.790;2022-12-24T09:25:01;9.20;99.90
58413;DHT22;44209;52.952;6.790;2022-12-24T09:27:29;9.30;99.90
58413;DHT22;44209;52.952;6.790;2022-12-24T09:29:55;9.30;99.90
58413;DHT22;44209;52.952;6.790;2022-12-24T09:32:21;9.30;99.90
58413;DHT22;44209;52.952;6.790;2022-12-24T09:34:47;9.30;99.90
58413;DHT22;44209;52.952;6.790;2022-12-24T09:37:13;9.30;99.90
58413;DHT22;44209;52.952;6.790;2022-12-24T09:39:38;9.30;99.90
58413;DHT22;44209;52.952;6.790;2022-12-24T09:44:50;9.40;99.90
58413;DHT22;44209;52.952;6.790;2022-12-24T09:47:27;9.40;99.90
58413;DHT22;44209;52.952;6.790;2022-12-24T09:49:56;9.40;99.90
58413;DHT22;44209;52.952;6.790;2022-12-24T09:52:33;9.40;99.90
58413;DHT22;44209;52.952;6.790;2022-12-24T09:55:33;9.50;99.90
58413;DHT22;44209;52.952;6.790;2022-12-24T09:58:01;9.50;99.90
58413;DHT22;44209;52.952;6.790;2022-12-24T10:00:32;9.50;99.90
58413;DHT22;44209;52.952;6.790;2022-12-24T10:03:00;9.50;99.90
58413;DHT22;44209;52.952;6.790;2022-12-24T10:05:39;9.50;99.90
58413;DHT22;44209;52.952;6.790;2022-12-24T10:10:45;9.50;99.90
58413;DHT22;44209;52.952;6.790;2022-12-24T10:24:59;9.50;99.90
58413;DHT22;44209;52.952;6.790;2022-12-24T10:27:34;9.50;99.90
58413;DHT22;44209;52.952;6.790;2022-12-24T10:30:11;9.50;99.90
58413;DHT22;44209;52.952;6.790;2022-12-24T10:32:38;9.50;99.90
58413;DHT22;44209;52.952;6.790;2022-12-24T10:37:40;9.50;99.90
58413;DHT22;44209;52.952;6.790;2022-12-24T10:40:56;9.50;99.90
58413;DHT22;44209;52.952;6.790;2022-12-24T10:42:58;9.50;99.90
58413;DHT22;44209;52.952;6.790;2022-12-24T10:45:35;9.60;99.90
58413;DHT22;44209;52.952;6.790;2022-12-24T10:48:06;9.60;99.90
58413;DHT22;44209;52.952;6.790;2022-12-24T10:50:39;9.60;99.90
58413;DHT22;44209;52.952;6.790;2022-12-24T10:56:28;9.70;99.90
58413;DHT22;44209;52.952;6.790;2022-12-24T10:58:54;9.60;99.90
58413;DHT22;44209;52.952;6.790;2022-12-24T11:01:20;9.70;99.90
58413;DHT22;44209;52.952;6.790;2022-12-24T11:04:06;9.70;99.90
58413;DHT22;44209;52.952;6.790;2022-12-24T11:07:03;9.80;99.90
58413;DHT22;44209;52.952;6.790;2022-12-24T11:09:31;9.80;99.90
58413;DHT22;44209;52.952;6.790;2022-12-24T11:11:58;9.80;99.90
58413;DHT22;44209;52.952;6.790;2022-12-24T11:14:27;9.80;99.90
58413;DHT22;44209;52.952;6.790;2022-12-24T11:16:54;9.80;99.90
58413;DHT22;44209;52.952;6.790;2022-12-24T11:19:36;9.80;99.90
58413;DHT22;44209;52.952;6.790;2022-12-24T11:22:15;9.90;99.90
58413;DHT22;44209;52.952;6.790;2022-12-24T11:24:42;9.90;99.90
58413;DHT22;44209;52.952;6.790;2022-12-24T11:27:42;9.90;99.90
58413;DHT22;44209;52.952;6.790;2022-12-24T11:33:10;9.90;99.90
58413;DHT22;44209;52.952;6.790;2022-12-24T11:35:39;9.90;99.90
58413;DHT22;44209;52.952;6.790;2022-12-24T11:40:48;9.80;99.90
58413;DHT22;44209;52.952;6.790;2022-12-24T11:43:19;9.80;99.90
58413;DHT22;44209;52.952;6.790;2022-12-24T11:45:56;9.90;99.90
58413;DHT22;44209;52.952;6.790;2022-12-24T11:48:33;9.80;99.90
58413;DHT22;44209;52.952;6.790;2022-12-24T11:51:08;9.90;99.90
58413;DHT22;44209;52.952;6.790;2022-12-24T11:53:56;9.90;99.90
58413;DHT22;44209;52.952;6.790;2022-12-24T11:56:36;9.90;99.90
58413;DHT22;44209;52.952;6.790;2022-12-24T11:59:21;9.90;99.90
58413;DHT22;44209;52.952;6.790;2022-12-24T12:02:20;9.90;99.90
58413;DHT22;44209;52.952;6.790;2022-12-24T12:05:02;10.00;99.90
58413;DHT22;44209;52.952;6.790;2022-12-24T12:07:34;10.00;99.90
58413;DHT22;44209;52.952;6.790;2022-12-24T12:12:44;10.10;99.90
58413;DHT22;44209;52.952;6.790;2022-12-24T12:15:44;10.10;99.90
58413;DHT22;44209;52.952;6.790;2022-12-24T12:18:14;10.00;99.90
58413;DHT22;44209;52.952;6.790;2022-12-24T12:20:47;10.00;99.90
58413;DHT22;44209;52.952;6.790;2022-12-24T12:25:51;10.10;99.90
58413;DHT22;44209;52.952;6.790;2022-12-24T12:31:02;10.10;99.90
58413;DHT22;44209;52.952;6.790;2022-12-24T12:33:38;10.10;99.90
58413;DHT22;44209;52.952;6.790;2022-12-24T12:36:08;10.10;99.90
58413;DHT22;44209;52.952;6.790;2022-12-24T12:38:34;10.10;99.90
58413;DHT22;44209;52.952;6.790;2022-12-24T12:44:04;10.10;99.90
58413;DHT22;44209;52.952;6.790;2022-12-24T12:55:22;10.10;99.90
58413;DHT22;44209;52.952;6.790;2022-12-24T12:57:54;10.00;99.90
58413;DHT22;44209;52.952;6.790;2022-12-24T13:00:22;10.00;99.90
58413;DHT22;44209;52.952;6.790;2022-12-24T13:05:51;10.00;99.90
58413;DHT22;44209;52.952;6.790;2022-12-24T13:22:38;9.90;99.90
58413;DHT22;44209;52.952;6.790;2022-12-24T13:25:04;9.90;99.90
58413;DHT22;44209;52.952;6.790;2022-12-24T13:27:33;9.90;99.90
58413;DHT22;44209;52.952;6.790;2022-12-24T13:30:03;9.90;99.90
58413;DHT22;44209;52.952;6.790;2022-12-24T13:32:37;9.90;99.90
58413;DHT22;44209;52.952;6.790;2022-12-24T13:37:50;10.00;99.90
58413;DHT22;44209;52.952;6.790;2022-12-24T13:40:25;10.00;99.90
58413;DHT22;44209;52.952;6.790;2022-12-24T13:47:55;10.10;99.90
58413;DHT22;44209;52.952;6.790;2022-12-24T13:50:43;10.00;99.90
58413;DHT22;44209;52.952;6.790;2022-12-24T13:53:37;10.00;99.90
58413;DHT22;44209;52.952;6.790;2022-12-24T13:58:46;9.90;99.90
58413;DHT22;44209;52.952;6.790;2022-12-24T14:01:33;9.90;99.90
58413;DHT22;44209;52.952;6.790;2022-12-24T14:04:01;9.90;99.90
58413;DHT22;44209;52.952;6.790;2022-12-24T14:06:33;9.80;99.90
58413;DHT22;44209;52.952;6.790;2022-12-24T14:09:15;9.80;99.90
58413;DHT22;44209;52.952;6.790;2022-12-24T14:14:30;9.70;99.90
58413;DHT22;44209;52.952;6.790;2022-12-24T14:17:43;9.70;99.90
58413;DHT22;44209;52.952;6.790;2022-12-24T14:19:50;9.70;99.90
58413;DHT22;44209;52.952;6.790;2022-12-24T14:22:37;9.70;99.90
58413;DHT22;44209;52.952;6.790;2022-12-24T14:25:21;9.70;99.90
58413;DHT22;44209;52.952;6.790;2022-12-24T14:27:58;9.60;99.90
58413;DHT22;44209;52.952;6.790;2022-12-24T14:30:29;9.50;99.90
58413;DHT22;44209;52.952;6.790;2022-12-24T14:32:55;9.50;99.90
58413;DHT22;44209;52.952;6.790;2022-12-24T14:35:39;9.40;99.90
58413;DHT22;44209;52.952;6.790;2022-12-24T14:38:13;9.40;99.90
58413;DHT22;44209;52.952;6.790;2022-12-24T14:46:27;9.30;99.90
58413;DHT22;44209;52.952;6.790;2022-12-24T14:49:10;9.20;99.90
58413;DHT22;44209;52.952;6.790;2022-12-24T14:54:30;9.20;99.90
58413;DHT22;44209;52.952;6.790;2022-12-24T14:57:10;9.10;99.90
58413;DHT22;44209;52.952;6.790;2022-12-24T14:59:49;9.10;99.90
58413;DHT22;44209;52.952;6.790;2022-12-24T15:02:42;9.10;99.90
58413;DHT22;44209;52.952;6.790;2022-12-24T15:05:11;9.00;99.90
58413;DHT22;44209;52.952;6.790;2022-12-24T15:07:59;9.00;99.90
58413;DHT22;44209;52.952;6.790;2022-12-24T15:10:37;9.00;99.90
58413;DHT22;44209;52.952;6.790;2022-12-24T15:13:25;9.00;99.90
58413;DHT22;44209;52.952;6.790;2022-12-24T15:15:52;9.00;99.90
58413;DHT22;44209;52.952;6.790;2022-12-24T15:18:21;9.00;99.90
58413;DHT22;44209;52.952;6.790;2022-12-24T15:20:52;9.00;99.90
58413;DHT22;44209;52.952;6.790;2022-12-24T15:23:30;8.90;99.90
58413;DHT22;44209;52.952;6.790;2022-12-24T15:28:54;8.90;99.90
58413;DHT22;44209;52.952;6.790;2022-12-24T15:31:22;8.90;99.90
58413;DHT22;44209;52.952;6.790;2022-12-24T15:33:51;8.90;99.90
58413;DHT22;44209;52.952;6.790;2022-12-24T15:36:41;8.80;99.90
58413;DHT22;44209;52.952;6.790;2022-12-24T15:39:13;8.80;99.90
58413;DHT22;44209;52.952;6.790;2022-12-24T15:41:43;8.80;99.90
58413;DHT22;44209;52.952;6.790;2022-12-24T15:44:33;8.70;99.90
58413;DHT22;44209;52.952;6.790;2022-12-24T15:47:00;8.70;99.90
58413;DHT22;44209;52.952;6.790;2022-12-24T15:49:28;8.70;99.90
58413;DHT22;44209;52.952;6.790;2022-12-24T15:52:06;8.70;99.90
58413;DHT22;44209;52.952;6.790;2022-12-24T15:54:33;8.60;99.90
58413;DHT22;44209;52.952;6.790;2022-12-24T15:56:59;8.60;99.90
58413;DHT22;44209;52.952;6.790;2022-12-24T15:59:36;8.60;99.90
58413;DHT22;44209;52.952;6.790;2022-12-24T16:02:37;8.60;99.90
58413;DHT22;44209;52.952;6.790;2022-12-24T16:08:06;8.50;99.90
58413;DHT22;44209;52.952;6.790;2022-12-24T16:10:37;8.50;99.90
58413;DHT22;44209;52.952;6.790;2022-12-24T16:13:20;8.40;99.90
58413;DHT22;44209;52.952;6.790;2022-12-24T16:15:53;8.30;99.90
58413;DHT22;44209;52.952;6.790;2022-12-24T16:18:32;8.30;99.90
58413;DHT22;44209;52.952;6.790;2022-12-24T16:20:58;8.30;99.90
58413;DHT22;44209;52.952;6.790;2022-12-24T16:23:53;8.20;99.90
58413;DHT22;44209;52.952;6.790;2022-12-24T16:26:20;8.20;99.90
58413;DHT22;44209;52.952;6.790;2022-12-24T16:28:46;8.20;99.90
58413;DHT22;44209;52.952;6.790;2022-12-24T16:31:26;8.20;99.90
58413;DHT22;44209;52.952;6.790;2022-12-24T16:33:54;8.20;99.90
58413;DHT22;44209;52.952;6.790;2022-12-24T16:36:20;8.10;99.90
58413;DHT22;44209;52.952;6.790;2022-12-24T16:38:46;8.10;99.90
58413;DHT22;44209;52.952;6.790;2022-12-24T16:41:30;8.10;99.90
58413;DHT22;44209;52.952;6.790;2022-12-24T16:44:15;8.10;99.90
58413;DHT22;44209;52.952;6.790;2022-12-24T16:46:41;8.10;99.90
58413;DHT22;44209;52.952;6.790;2022-12-24T16:49:20;8.00;99.90
58413;DHT22;44209;52.952;6.790;2022-12-24T16:51:46;8.00;99.90
58413;DHT22;44209;52.952;6.790;2022-12-24T16:54:13;7.80;99.90
58413;DHT22;44209;52.952;6.790;2022-12-24T16:56:40;7.80;99.90
58413;DHT22;44209;52.952;6.790;2022-12-24T16:59:06;7.70;99.90
58413;DHT22;44209;52.952;6.790;2022-12-24T17:01:34;7.70;99.90
58413;DHT22;44209;52.952;6.790;2022-12-24T17:03:59;7.70;99.90
58413;DHT22;44209;52.952;6.790;2022-12-24T17:06:25;7.60;99.90
58413;DHT22;44209;52.952;6.790;2022-12-24T17:08:51;7.60;99.90
58413;DHT22;44209;52.952;6.790;2022-12-24T17:11:21;7.60;99.90
58413;DHT22;44209;52.952;6.790;2022-12-24T17:13:47;7.50;99.90
58413;DHT22;44209;52.952;6.790;2022-12-24T17:16:12;7.50;99.90
58413;DHT22;44209;52.952;6.790;2022-12-24T17:18:38;7.40;99.90
58413;DHT22;44209;52.952;6.790;2022-12-24T17:21:04;7.40;99.90
58413;DHT22;44209;52.952;6.790;2022-12-24T17:23:31;7.40;99.90
58413;DHT22;44209;52.952;6.790;2022-12-24T17:25:57;7.40;99.90
58413;DHT22;44209;52.952;6.790;2022-12-24T17:28:23;7.40;99.90
58413;DHT22;44209;52.952;6.790;2022-12-24T17:30:49;7.30;99.90
58413;DHT22;44209;52.952;6.790;2022-12-24T17:33:14;7.20;99.90
58413;DHT22;44209;52.952;6.790;2022-12-24T17:35:41;7.20;99.90
58413;DHT22;44209;52.952;6.790;2022-12-24T17:38:07;7.10;99.90
58413;DHT22;44209;52.952;6.790;2022-12-24T17:40:33;7.10;99.90
58413;DHT22;44209;52.952;6.790;2022-12-24T17:42:58;7.10;99.90
58413;DHT22;44209;52.952;6.790;2022-12-24T17:45:24;7.00;99.90
58413;DHT22;44209;52.952;6.790;2022-12-24T17:47:51;7.00;99.90
58413;DHT22;44209;52.952;6.790;2022-12-24T17:50:17;7.10;99.90
58413;DHT22;44209;52.952;6.790;2022-12-24T17:52:43;7.00;99.90
58413;DHT22;44209;52.952;6.790;2022-12-24T17:55:09;7.00;99.90
58413;DHT22;44209;52.952;6.790;2022-12-24T17:57:35;7.00;99.90
58413;DHT22;44209;52.952;6.790;2022-12-24T18:00:01;7.00;99.90
58413;DHT22;44209;52.952;6.790;2022-12-24T18:02:26;7.00;99.90